Time;durP1;ratioP1;P1;durP2;ratioP2;P2;SDS_P1;SDS_P2;PMS_P1;PMS_P2;Temp;Humidity;BMP_temperature;BMP_pressure;BME280_temperature;BME280_humidity;BME280_pressure;Samples;Min_cycle;Max_cycle;Signal;HPM_P1;HPM_P2
2021/05/24 00:02:37;;;;;;;1.23;1.10;;;;;;;19.67;51.89;100353.25;;;;-54
2021/05/24 00:05:38;;;;;;;1.11;1.08;;;;;;;19.66;51.88;100344.46;;;;-54
2021/05/24 00:08:37;;;;;;;1.33;1.20;;;;;;;19.65;51.95;100339.48;;;;-54
2021/05/24 00:11:37;;;;;;;1.29;1.19;;;;;;;19.63;51.93;100328.91;;;;-54
2021/05/24 00:14:39;;;;;;;1.21;1.10;;;;;;;19.62;51.96;100324.28;;;;-54
2021/05/24 00:17:37;;;;;;;1.13;1.07;;;;;;;19.62;51.86;100323.14;;;;-54
2021/05/24 00:20:37;;;;;;;1.28;1.18;;;;;;;19.61;51.98;100321.52;;;;-54
2021/05/24 00:23:37;;;;;;;1.33;1.23;;;;;;;19.59;51.91;100323.95;;;;-54
2021/05/24 00:26:37;;;;;;;1.04;1.01;;;;;;;19.60;51.95;100322.16;;;;-54
2021/05/24 00:29:37;;;;;;;1.17;1.07;;;;;;;19.59;51.96;100320.38;;;;-54
2021/05/24 00:32:37;;;;;;;1.20;1.10;;;;;;;19.58;51.92;100318.66;;;;-54
2021/05/24 00:35:37;;;;;;;1.56;1.18;;;;;;;19.58;51.99;100313.70;;;;-54
2021/05/24 00:38:37;;;;;;;1.00;1.00;;;;;;;19.56;52.02;100311.24;;;;-54
2021/05/24 00:41:37;;;;;;;1.55;1.21;;;;;;;19.55;51.93;100308.98;;;;-54
2021/05/24 00:44:37;;;;;;;1.19;1.11;;;;;;;19.54;51.92;100320.34;;;;-54
2021/05/24 00:47:38;;;;;;;2.30;1.20;;;;;;;19.54;51.95;100317.91;;;;-54
2021/05/24 00:50:37;;;;;;;1.26;1.10;;;;;;;19.54;51.90;100321.41;;;;-54
2021/05/24 00:53:37;;;;;;;1.25;1.15;;;;;;;19.53;51.90;100322.84;;;;-54
2021/05/24 00:56:37;;;;;;;1.20;1.10;;;;;;;19.52;51.97;100320.17;;;;-54
2021/05/24 00:59:37;;;;;;;1.71;1.23;;;;;;;19.51;51.99;100314.25;;;;-54
2021/05/24 01:02:37;;;;;;;1.21;1.09;;;;;;;19.51;51.96;100301.22;;;;-54
2021/05/24 01:05:38;;;;;;;1.46;1.20;;;;;;;19.50;51.99;100293.75;;;;-54
2021/05/24 01:08:37;;;;;;;1.65;1.03;;;;;;;19.49;51.96;100281.33;;;;-53
2021/05/24 01:11:37;;;;;;;1.96;1.19;;;;;;;19.48;51.92;100284.63;;;;-54
2021/05/24 01:14:37;;;;;;;1.27;1.17;;;;;;;19.48;51.98;100284.64;;;;-54
2021/05/24 01:17:37;;;;;;;1.29;1.19;;;;;;;19.47;51.91;100283.10;;;;-54
2021/05/24 01:20:37;;;;;;;1.32;1.19;;;;;;;19.46;51.96;100290.34;;;;-54
2021/05/24 01:23:37;;;;;;;1.97;1.20;;;;;;;19.46;52.01;100285.52;;;;-54
2021/05/24 01:26:37;;;;;;;1.10;1.05;;;;;;;19.46;52.02;100282.84;;;;-54
2021/05/24 01:29:38;;;;;;;1.20;1.10;;;;;;;19.45;51.96;100285.94;;;;-53
2021/05/24 01:32:37;;;;;;;1.28;1.17;;;;;;;19.44;51.96;100277.39;;;;-54
2021/05/24 01:35:38;;;;;;;1.24;1.13;;;;;;;19.44;51.97;100273.16;;;;-54
2021/05/24 01:38:38;;;;;;;1.20;1.10;;;;;;;19.43;51.95;100268.13;;;;-53
2021/05/24 01:41:37;;;;;;;1.40;1.16;;;;;;;19.43;52.04;100270.74;;;;-54
2021/05/24 01:44:37;;;;;;;1.28;1.18;;;;;;;19.42;51.93;100266.92;;;;-54
2021/05/24 01:47:37;;;;;;;1.10;1.10;;;;;;;19.40;51.99;100261.23;;;;-54
2021/05/24 01:50:37;;;;;;;1.17;1.07;;;;;;;19.40;51.91;100248.53;;;;-54
2021/05/24 01:53:38;;;;;;;1.25;1.15;;;;;;;19.39;51.99;100248.45;;;;-52
2021/05/24 01:56:37;;;;;;;1.29;1.18;;;;;;;19.39;52.01;100244.15;;;;-52
2021/05/24 01:59:37;;;;;;;1.30;1.20;;;;;;;19.38;51.94;100239.52;;;;-52
2021/05/24 02:02:37;;;;;;;1.20;1.10;;;;;;;19.38;51.98;100241.05;;;;-52
2021/05/24 02:05:37;;;;;;;1.01;1.01;;;;;;;19.38;51.93;100241.53;;;;-52
2021/05/24 02:08:37;;;;;;;1.20;1.10;;;;;;;19.37;52.00;100244.54;;;;-52
2021/05/24 02:11:38;;;;;;;1.40;1.20;;;;;;;19.36;51.99;100237.00;;;;-52
2021/05/24 02:14:37;;;;;;;1.10;1.10;;;;;;;19.36;51.95;100234.70;;;;-52
2021/05/24 02:17:37;;;;;;;1.20;1.09;;;;;;;19.35;51.95;100233.16;;;;-52
2021/05/24 02:20:38;;;;;;;0.96;0.96;;;;;;;19.35;51.95;100228.21;;;;-52
2021/05/24 02:23:37;;;;;;;1.13;1.03;;;;;;;19.34;51.90;100230.08;;;;-52
2021/05/24 02:26:37;;;;;;;1.12;1.05;;;;;;;19.34;51.94;100229.25;;;;-52
2021/05/24 02:29:37;;;;;;;1.18;1.10;;;;;;;19.33;51.96;100235.75;;;;-52
2021/05/24 02:32:37;;;;;;;1.13;1.04;;;;;;;19.32;51.97;100221.22;;;;-52
2021/05/24 02:35:38;;;;;;;1.02;1.02;;;;;;;19.32;51.92;100220.22;;;;-52
2021/05/24 02:38:37;;;;;;;1.05;1.03;;;;;;;19.31;51.91;100216.25;;;;-52
2021/05/24 02:41:38;;;;;;;1.11;1.10;;;;;;;19.31;51.97;100207.48;;;;-52
2021/05/24 02:44:37;;;;;;;1.21;1.12;;;;;;;19.30;51.93;100208.54;;;;-52
2021/05/24 02:47:37;;;;;;;1.17;1.11;;;;;;;19.29;51.93;100202.75;;;;-52
2021/05/24 02:50:37;;;;;;;1.14;1.07;;;;;;;19.28;52.01;100209.02;;;;-52
2021/05/24 02:53:37;;;;;;;1.42;1.11;;;;;;;19.28;51.88;100206.15;;;;-52
2021/05/24 02:56:38;;;;;;;1.04;0.95;;;;;;;19.28;51.94;100200.30;;;;-52
2021/05/24 02:59:37;;;;;;;1.06;1.06;;;;;;;19.27;51.98;100192.27;;;;-52
2021/05/24 03:02:44;;;;;;;1.20;1.10;;;;;;;19.27;51.95;100191.86;;;;-52
2021/05/24 03:05:37;;;;;;;1.00;1.00;;;;;;;19.26;51.93;100187.08;;;;-52
2021/05/24 03:08:37;;;;;;;1.00;1.00;;;;;;;19.26;51.87;100189.57;;;;-52
2021/05/24 03:11:37;;;;;;;1.23;1.13;;;;;;;19.25;51.96;100193.16;;;;-52
2021/05/24 03:14:37;;;;;;;1.19;1.11;;;;;;;19.25;51.92;100191.53;;;;-52
2021/05/24 03:17:37;;;;;;;1.20;1.10;;;;;;;19.24;51.95;100195.44;;;;-52
2021/05/24 03:20:37;;;;;;;1.42;1.13;;;;;;;19.23;51.92;100187.21;;;;-52
2021/05/24 03:23:37;;;;;;;1.20;1.10;;;;;;;19.24;51.95;100189.92;;;;-52
2021/05/24 03:26:37;;;;;;;1.03;1.03;;;;;;;19.23;51.89;100203.55;;;;-52
2021/05/24 03:29:37;;;;;;;1.09;1.07;;;;;;;19.23;51.86;100202.24;;;;-52
2021/05/24 03:32:37;;;;;;;1.17;1.13;;;;;;;19.22;51.84;100200.70;;;;-52
2021/05/24 03:35:37;;;;;;;1.51;1.10;;;;;;;19.23;51.95;100194.78;;;;-52
2021/05/24 03:38:37;;;;;;;1.20;1.10;;;;;;;19.22;51.89;100191.22;;;;-52
2021/05/24 03:41:37;;;;;;;0.97;0.97;;;;;;;19.21;51.87;100201.42;;;;-52
2021/05/24 03:44:42;;;;;;;1.03;1.03;;;;;;;19.20;51.89;100201.11;;;;-52
2021/05/24 03:47:37;;;;;;;1.20;1.10;;;;;;;19.21;51.95;100206.95;;;;-52
2021/05/24 03:50:37;;;;;;;1.23;1.14;;;;;;;19.20;51.99;100205.17;;;;-52
2021/05/24 03:53:37;;;;;;;1.30;1.20;;;;;;;19.19;51.90;100205.56;;;;-52
2021/05/24 03:56:37;;;;;;;1.03;1.03;;;;;;;19.19;51.94;100203.94;;;;-52
2021/05/24 03:59:37;;;;;;;1.38;1.17;;;;;;;19.18;51.94;100196.47;;;;-52
2021/05/24 04:02:37;;;;;;;1.01;0.99;;;;;;;19.18;51.95;100192.41;;;;-52
2021/05/24 04:05:39;;;;;;;1.03;1.03;;;;;;;19.17;51.96;100183.46;;;;-52
2021/05/24 04:08:41;;;;;;;1.11;1.07;;;;;;;19.17;51.92;100193.45;;;;-52
2021/05/24 04:11:37;;;;;;;1.15;1.05;;;;;;;19.17;51.95;100186.88;;;;-52
2021/05/24 04:14:39;;;;;;;1.21;1.11;;;;;;;19.16;51.93;100182.90;;;;-57
2021/05/24 04:17:39;;;;;;;1.22;1.15;;;;;;;19.16;51.93;100180.95;;;;-58
2021/05/24 04:20:37;;;;;;;1.20;1.10;;;;;;;19.16;51.16;100175.34;;;;-58
2021/05/24 04:23:37;;;;;;;2.83;1.42;;;;;;;18.96;47.21;100169.58;;;;-55
2021/05/24 04:26:37;;;;;;;2.61;1.60;;;;;;;18.76;46.60;100166.81;;;;-56
2021/05/24 04:29:37;;;;;;;2.65;1.47;;;;;;;18.53;46.45;100171.56;;;;-57
2021/05/24 04:32:37;;;;;;;2.75;1.49;;;;;;;18.34;46.77;100173.08;;;;-52
2021/05/24 04:35:37;;;;;;;2.35;1.54;;;;;;;18.08;46.93;100176.94;;;;-53
2021/05/24 04:38:37;;;;;;;2.05;1.52;;;;;;;17.91;47.91;100164.16;;;;-52
2021/05/24 04:41:37;;;;;;;3.86;1.62;;;;;;;18.00;48.32;100172.41;;;;-52
2021/05/24 04:44:38;;;;;;;2.22;1.33;;;;;;;18.09;48.36;100170.28;;;;-52
2021/05/24 04:47:37;;;;;;;2.91;1.51;;;;;;;18.17;48.96;100174.32;;;;-52
2021/05/24 04:50:37;;;;;;;3.83;1.64;;;;;;;18.23;49.01;100170.30;;;;-52
2021/05/24 04:53:37;;;;;;;1.74;1.30;;;;;;;18.30;49.14;100164.10;;;;-52
2021/05/24 04:56:37;;;;;;;3.69;1.32;;;;;;;18.34;49.14;100157.39;;;;-52
2021/05/24 04:59:37;;;;;;;2.11;1.35;;;;;;;18.38;49.27;100146.88;;;;-53
2021/05/24 05:02:37;;;;;;;4.15;1.43;;;;;;;18.42;49.47;100143.09;;;;-53
2021/05/24 05:05:37;;;;;;;3.12;1.45;;;;;;;18.44;49.49;100151.20;;;;-52
2021/05/24 05:08:37;;;;;;;2.93;1.37;;;;;;;18.47;49.61;100150.56;;;;-52
2021/05/24 05:11:37;;;;;;;2.16;1.33;;;;;;;18.49;49.81;100155.06;;;;-53
2021/05/24 05:14:37;;;;;;;1.69;1.36;;;;;;;18.50;49.73;100149.46;;;;-52
2021/05/24 05:17:37;;;;;;;2.57;1.49;;;;;;;18.52;49.91;100150.45;;;;-52
2021/05/24 05:20:37;;;;;;;1.88;1.37;;;;;;;18.54;49.88;100144.05;;;;-52
2021/05/24 05:23:37;;;;;;;2.55;1.38;;;;;;;18.55;49.93;100137.48;;;;-52
2021/05/24 05:26:37;;;;;;;1.78;1.29;;;;;;;18.58;49.97;100139.53;;;;-52
2021/05/24 05:29:37;;;;;;;1.40;1.30;;;;;;;18.60;50.07;100146.19;;;;-53
2021/05/24 05:32:37;;;;;;;1.36;1.26;;;;;;;18.64;50.10;100142.16;;;;-52
2021/05/24 05:35:37;;;;;;;2.08;1.41;;;;;;;18.67;50.22;100153.59;;;;-52
2021/05/24 05:38:38;;;;;;;1.94;1.40;;;;;;;18.71;50.23;100158.73;;;;-53
2021/05/24 05:41:37;;;;;;;2.57;1.33;;;;;;;18.74;50.24;100164.91;;;;-52
2021/05/24 05:44:37;;;;;;;1.49;1.31;;;;;;;18.77;50.34;100167.61;;;;-53
2021/05/24 05:47:37;;;;;;;1.53;1.38;;;;;;;18.81;50.46;100173.18;;;;-53
2021/05/24 05:50:37;;;;;;;1.32;1.20;;;;;;;18.84;50.56;100167.45;;;;-53
2021/05/24 05:53:37;;;;;;;1.84;1.20;;;;;;;18.87;50.51;100165.16;;;;-52
2021/05/24 05:56:37;;;;;;;1.41;1.20;;;;;;;18.91;50.55;100158.86;;;;-53
2021/05/24 05:59:37;;;;;;;1.40;1.30;;;;;;;18.93;50.66;100153.83;;;;-53
2021/05/24 06:02:37;;;;;;;1.19;1.10;;;;;;;18.95;50.76;100159.92;;;;-53
2021/05/24 06:05:37;;;;;;;1.30;1.20;;;;;;;18.98;50.71;100157.41;;;;-53
2021/05/24 06:08:37;;;;;;;1.40;1.30;;;;;;;19.01;50.74;100156.05;;;;-53
2021/05/24 06:11:37;;;;;;;1.31;1.20;;;;;;;19.03;50.80;100151.00;;;;-53
2021/05/24 06:14:37;;;;;;;1.28;1.18;;;;;;;19.05;50.81;100147.44;;;;-53
2021/05/24 06:17:37;;;;;;;1.27;1.17;;;;;;;19.06;50.78;100138.36;;;;-52
2021/05/24 06:20:37;;;;;;;1.59;1.30;;;;;;;19.08;50.85;100143.23;;;;-53
2021/05/24 06:23:37;;;;;;;1.09;1.09;;;;;;;19.09;50.85;100140.95;;;;-53
2021/05/24 06:26:37;;;;;;;1.25;1.15;;;;;;;19.11;50.92;100140.31;;;;-53
2021/05/24 06:29:38;;;;;;;1.35;1.20;;;;;;;19.12;50.84;100137.08;;;;-53
2021/05/24 06:32:37;;;;;;;1.30;1.20;;;;;;;19.13;50.81;100130.81;;;;-52
2021/05/24 06:35:37;;;;;;;1.31;1.20;;;;;;;19.14;50.77;100128.72;;;;-53
2021/05/24 06:38:37;;;;;;;1.62;1.17;;;;;;;19.15;50.76;100136.26;;;;-53
2021/05/24 06:41:37;;;;;;;1.33;1.23;;;;;;;19.15;50.76;100135.84;;;;-53
2021/05/24 06:44:37;;;;;;;1.16;1.10;;;;;;;19.16;50.76;100137.09;;;;-53
2021/05/24 06:47:37;;;;;;;1.31;1.21;;;;;;;19.16;50.70;100136.11;;;;-53
2021/05/24 06:50:37;;;;;;;1.33;1.23;;;;;;;19.17;50.70;100136.18;;;;-53
2021/05/24 06:53:37;;;;;;;1.35;1.25;;;;;;;19.17;50.76;100129.44;;;;-53
2021/05/24 06:56:37;;;;;;;1.35;1.22;;;;;;;19.18;50.84;100130.36;;;;-52
2021/05/24 06:59:38;;;;;;;1.14;1.10;;;;;;;19.18;50.73;100128.64;;;;-53
2021/05/24 07:02:37;;;;;;;1.18;1.11;;;;;;;19.18;50.70;100126.13;;;;-53
2021/05/24 07:05:37;;;;;;;1.62;1.21;;;;;;;19.18;50.67;100130.91;;;;-53
2021/05/24 07:08:37;;;;;;;1.24;1.10;;;;;;;19.18;50.69;100131.89;;;;-53
2021/05/24 07:11:37;;;;;;;1.21;1.11;;;;;;;19.19;50.71;100132.37;;;;-53
2021/05/24 07:14:38;;;;;;;1.17;1.10;;;;;;;19.19;50.71;100132.61;;;;-53
2021/05/24 07:17:37;;;;;;;1.04;1.03;;;;;;;19.19;50.68;100133.18;;;;-53
2021/05/24 07:20:37;;;;;;;1.16;1.10;;;;;;;19.19;50.75;100132.05;;;;-52
2021/05/24 07:23:37;;;;;;;1.23;1.10;;;;;;;19.19;50.73;100134.23;;;;-53
2021/05/24 07:26:37;;;;;;;1.29;1.19;;;;;;;19.19;50.73;100137.00;;;;-53
2021/05/24 07:29:37;;;;;;;1.20;1.10;;;;;;;19.20;50.69;100135.00;;;;-52
2021/05/24 07:32:38;;;;;;;1.20;1.10;;;;;;;19.19;50.67;100124.82;;;;-53
2021/05/24 07:35:37;;;;;;;1.27;1.17;;;;;;;19.19;50.70;100129.53;;;;-52
2021/05/24 07:38:37;;;;;;;1.20;1.14;;;;;;;19.19;50.69;100120.34;;;;-53
2021/05/24 07:41:37;;;;;;;1.34;1.13;;;;;;;19.19;50.73;100111.58;;;;-53
2021/05/24 07:44:37;;;;;;;1.23;1.13;;;;;;;19.18;50.73;100113.29;;;;-53
2021/05/24 07:47:37;;;;;;;1.26;1.16;;;;;;;19.17;50.67;100113.55;;;;-53
2021/05/24 07:50:37;;;;;;;1.40;1.30;;;;;;;19.18;50.72;100121.58;;;;-53
2021/05/24 07:53:37;;;;;;;1.13;1.09;;;;;;;19.18;50.68;100116.06;;;;-53
2021/05/24 07:56:37;;;;;;;0.99;0.99;;;;;;;19.18;50.71;100117.84;;;;-52
2021/05/24 07:59:37;;;;;;;1.23;1.13;;;;;;;19.18;50.71;100115.90;;;;-53
2021/05/24 08:02:37;;;;;;;1.16;1.06;;;;;;;19.18;50.71;100114.27;;;;-53
2021/05/24 08:05:37;;;;;;;3.68;1.43;;;;;;;19.19;50.96;100108.09;;;;-49
2021/05/24 08:08:37;;;;;;;1.61;1.20;;;;;;;19.20;51.63;100102.34;;;;-57
2021/05/24 08:11:37;;;;;;;1.47;1.25;;;;;;;19.21;51.49;100094.69;;;;-61
2021/05/24 08:14:37;;;;;;;2.19;1.21;;;;;;;19.23;51.55;100096.64;;;;-54
2021/05/24 08:17:38;;;;;;;1.90;1.24;;;;;;;19.23;51.59;100094.45;;;;-57
2021/05/24 08:20:37;;;;;;;1.33;1.23;;;;;;;19.24;51.64;100093.97;;;;-60
2021/05/24 08:23:37;;;;;;;2.04;1.13;;;;;;;19.26;51.76;100094.87;;;;-56
2021/05/24 08:26:37;;;;;;;1.60;1.30;;;;;;;19.27;51.72;100090.80;;;;-58
2021/05/24 08:29:37;;;;;;;1.79;1.11;;;;;;;19.27;51.77;100086.32;;;;-50
2021/05/24 08:32:37;;;;;;;3.79;1.30;;;;;;;19.30;51.73;100082.17;;;;-53
2021/05/24 08:35:37;;;;;;;3.65;1.32;;;;;;;19.32;51.37;100077.25;;;;-52
2021/05/24 08:38:37;;;;;;;5.07;1.47;;;;;;;19.32;51.58;100074.56;;;;-57
2021/05/24 08:41:37;;;;;;;1.35;1.20;;;;;;;19.33;51.69;100063.83;;;;-58
2021/05/24 08:44:38;;;;;;;1.32;1.21;;;;;;;19.35;51.64;100062.62;;;;-56
2021/05/24 08:47:37;;;;;;;3.04;1.24;;;;;;;19.36;51.69;100061.70;;;;-54
2021/05/24 08:50:37;;;;;;;1.91;1.27;;;;;;;19.36;51.64;100048.81;;;;-57
2021/05/24 08:53:37;;;;;;;2.16;1.20;;;;;;;19.37;51.54;100045.23;;;;-58
2021/05/24 08:56:37;;;;;;;3.69;1.25;;;;;;;19.38;51.71;100038.06;;;;-57
2021/05/24 08:59:37;;;;;;;1.56;1.19;;;;;;;19.39;51.70;100034.09;;;;-54
2021/05/24 09:02:37;;;;;;;2.52;1.30;;;;;;;19.39;51.66;100030.77;;;;-51
2021/05/24 09:05:37;;;;;;;2.31;1.21;;;;;;;19.41;51.45;100024.75;;;;-57
2021/05/24 09:08:37;;;;;;;3.79;1.31;;;;;;;19.41;51.68;100018.98;;;;-55
2021/05/24 09:11:37;;;;;;;4.02;1.34;;;;;;;19.42;51.68;100016.20;;;;-62
2021/05/24 09:14:37;;;;;;;3.11;1.26;;;;;;;19.42;51.67;100009.98;;;;-62
2021/05/24 09:17:37;;;;;;;1.37;1.20;;;;;;;19.43;51.74;99996.48;;;;-60
2021/05/24 09:20:37;;;;;;;1.69;1.31;;;;;;;19.44;51.73;99994.02;;;;-62
2021/05/24 09:23:38;;;;;;;4.73;1.31;;;;;;;19.44;51.75;99989.66;;;;-55
2021/05/24 09:26:37;;;;;;;1.58;1.13;;;;;;;19.44;51.72;99981.05;;;;-51
2021/05/24 09:29:37;;;;;;;1.78;1.19;;;;;;;19.47;51.75;99982.09;;;;-60
2021/05/24 09:32:38;;;;;;;1.21;1.11;;;;;;;19.46;51.85;99975.84;;;;-58
2021/05/24 09:35:37;;;;;;;1.34;1.21;;;;;;;19.47;51.74;99972.82;;;;-53
2021/05/24 09:38:37;;;;;;;4.07;1.20;;;;;;;19.48;51.91;99968.42;;;;-54
2021/05/24 09:41:37;;;;;;;1.59;1.20;;;;;;;19.49;51.78;99964.22;;;;-50
2021/05/24 09:44:37;;;;;;;2.57;1.14;;;;;;;19.50;51.78;99963.55;;;;-51
2021/05/24 09:47:38;;;;;;;2.47;1.19;;;;;;;19.52;51.73;99962.56;;;;-52
2021/05/24 09:50:37;;;;;;;2.25;1.31;;;;;;;19.52;51.85;99967.11;;;;-53
2021/05/24 09:53:37;;;;;;;1.35;1.15;;;;;;;19.53;51.78;99965.98;;;;-51
2021/05/24 09:56:37;;;;;;;1.20;1.10;;;;;;;19.54;51.80;99962.97;;;;-56
2021/05/24 09:59:38;;;;;;;1.41;1.05;;;;;;;19.54;51.80;99962.16;;;;-52
2021/05/24 10:02:37;;;;;;;1.39;1.19;;;;;;;19.55;51.78;99957.20;;;;-54
2021/05/24 10:05:38;;;;;;;1.23;1.10;;;;;;;19.56;51.75;99949.48;;;;-62
2021/05/24 10:08:37;;;;;;;1.39;1.29;;;;;;;19.57;51.80;99944.59;;;;-56
2021/05/24 10:11:38;;;;;;;1.23;1.09;;;;;;;19.58;51.76;99938.09;;;;-53
2021/05/24 10:14:37;;;;;;;1.37;1.11;;;;;;;19.58;51.75;99931.34;;;;-57
2021/05/24 10:17:42;;;;;;;1.20;1.01;;;;;;;19.59;51.79;99924.61;;;;-52
2021/05/24 10:20:37;;;;;;;1.43;1.20;;;;;;;19.59;51.79;99923.88;;;;-54
2021/05/24 10:23:37;;;;;;;1.25;1.10;;;;;;;19.61;51.46;99918.51;;;;-51
2021/05/24 10:26:37;;;;;;;2.29;1.20;;;;;;;19.60;51.74;99909.95;;;;-51
2021/05/24 10:29:37;;;;;;;2.23;1.29;;;;;;;19.58;51.62;99902.73;;;;-51
2021/05/24 10:32:37;;;;;;;2.09;1.22;;;;;;;19.58;51.51;99900.21;;;;-51
2021/05/24 10:35:37;;;;;;;2.13;1.10;;;;;;;19.58;51.54;99898.27;;;;-51
2021/05/24 10:38:37;;;;;;;1.21;1.10;;;;;;;19.57;51.49;99889.97;;;;-51
2021/05/24 10:41:37;;;;;;;3.14;1.27;;;;;;;19.56;51.60;99889.09;;;;-51
2021/05/24 10:44:37;;;;;;;2.36;1.24;;;;;;;19.56;51.52;99886.90;;;;-51
2021/05/24 10:47:37;;;;;;;1.30;1.13;;;;;;;19.55;51.41;99885.03;;;;-51
2021/05/24 10:50:37;;;;;;;2.27;1.09;;;;;;;19.55;51.41;99880.88;;;;-51
2021/05/24 10:53:37;;;;;;;1.75;1.13;;;;;;;19.55;51.39;99869.28;;;;-54
2021/05/24 10:56:37;;;;;;;1.22;1.10;;;;;;;19.56;51.40;99865.03;;;;-64
2021/05/24 10:59:37;;;;;;;2.99;1.19;;;;;;;19.57;51.46;99856.67;;;;-58
2021/05/24 11:02:37;;;;;;;1.52;1.19;;;;;;;19.57;51.49;99849.77;;;;-59
2021/05/24 11:05:37;;;;;;;2.41;1.09;;;;;;;19.58;51.56;99847.95;;;;-54
2021/05/24 11:08:39;;;;;;;2.01;1.22;;;;;;;19.59;51.58;99844.72;;;;-60
2021/05/24 11:11:39;;;;;;;1.79;1.00;;;;;;;19.59;51.57;99840.98;;;;-61
2021/05/24 11:14:37;;;;;;;2.72;1.06;;;;;;;19.61;51.66;99840.05;;;;-62
2021/05/24 11:17:37;;;;;;;1.99;1.15;;;;;;;19.61;51.64;99832.25;;;;-58
2021/05/24 11:20:37;;;;;;;14.87;1.39;;;;;;;19.62;51.55;99828.11;;;;-60
2021/05/24 11:23:43;;;;;;;1.37;1.15;;;;;;;19.61;51.58;99808.35;;;;-60
2021/05/24 11:26:37;;;;;;;2.00;1.09;;;;;;;19.61;51.65;99821.86;;;;-60
2021/05/24 11:29:37;;;;;;;2.65;1.15;;;;;;;19.60;51.56;99823.31;;;;-53
2021/05/24 11:32:37;;;;;;;3.49;1.10;;;;;;;19.59;51.52;99818.95;;;;-53
2021/05/24 11:35:37;;;;;;;3.69;1.16;;;;;;;19.58;51.56;99810.41;;;;-53
2021/05/24 11:38:37;;;;;;;3.37;1.17;;;;;;;19.59;51.45;99807.81;;;;-53
2021/05/24 11:41:39;;;;;;;2.23;1.43;;;;;;;19.58;51.68;99802.11;;;;-58
2021/05/24 11:44:38;;;;;;;2.25;1.25;;;;;;;19.59;51.44;99798.80;;;;-57
2021/05/24 11:47:38;;;;;;;1.79;0.97;;;;;;;19.62;51.56;99792.03;;;;-52
2021/05/24 11:50:37;;;;;;;2.24;1.21;;;;;;;19.61;51.53;99789.12;;;;-52
2021/05/24 11:53:37;;;;;;;1.46;1.08;;;;;;;19.61;51.59;99781.94;;;;-52
2021/05/24 11:56:38;;;;;;;2.29;1.12;;;;;;;19.61;51.57;99783.24;;;;-53
2021/05/24 11:59:37;;;;;;;1.18;1.08;;;;;;;19.60;51.50;99774.23;;;;-52
2021/05/24 12:02:37;;;;;;;1.32;1.11;;;;;;;19.59;51.53;99778.55;;;;-52
2021/05/24 12:05:37;;;;;;;1.67;1.06;;;;;;;19.59;51.39;99767.81;;;;-50
2021/05/24 12:08:37;;;;;;;2.28;1.10;;;;;;;19.59;51.45;99768.80;;;;-50
2021/05/24 12:11:37;;;;;;;3.35;1.29;;;;;;;19.59;51.37;99771.81;;;;-50
2021/05/24 12:14:37;;;;;;;1.64;1.07;;;;;;;19.59;51.35;99766.05;;;;-50
2021/05/24 12:17:37;;;;;;;2.10;1.09;;;;;;;19.58;51.40;99772.37;;;;-50
2021/05/24 12:20:37;;;;;;;1.97;1.10;;;;;;;19.58;51.43;99763.36;;;;-50
2021/05/24 12:23:37;;;;;;;1.39;1.01;;;;;;;19.58;51.32;99761.41;;;;-50
2021/05/24 12:26:37;;;;;;;3.63;1.33;;;;;;;19.58;51.35;99763.92;;;;-50
2021/05/24 12:29:37;;;;;;;1.33;1.05;;;;;;;19.57;51.31;99759.70;;;;-50
2021/05/24 12:32:37;;;;;;;1.53;1.10;;;;;;;19.57;51.31;99753.53;;;;-52
2021/05/24 12:35:37;;;;;;;1.19;1.09;;;;;;;19.57;51.24;99756.63;;;;-52
2021/05/24 12:38:44;;;;;;;1.48;1.01;;;;;;;19.56;51.33;99754.91;;;;-52
2021/05/24 12:41:37;;;;;;;1.01;1.00;;;;;;;19.57;51.31;99750.69;;;;-52
2021/05/24 12:44:37;;;;;;;1.20;1.10;;;;;;;19.56;51.26;99752.86;;;;-51
2021/05/24 12:47:37;;;;;;;0.99;0.93;;;;;;;19.56;51.26;99749.87;;;;-52
2021/05/24 12:50:37;;;;;;;0.97;0.81;;;;;;;19.57;51.24;99753.92;;;;-52
2021/05/24 12:53:37;;;;;;;1.64;1.06;;;;;;;19.56;51.22;99744.59;;;;-52
2021/05/24 12:56:37;;;;;;;1.05;1.00;;;;;;;19.56;51.29;99747.83;;;;-52
2021/05/24 12:59:37;;;;;;;1.20;1.03;;;;;;;19.55;51.22;99742.73;;;;-51
2021/05/24 13:02:37;;;;;;;2.38;1.01;;;;;;;19.56;51.24;99743.86;;;;-50
2021/05/24 13:05:37;;;;;;;1.23;1.00;;;;;;;19.55;51.16;99740.53;;;;-50
2021/05/24 13:08:37;;;;;;;2.19;1.05;;;;;;;19.55;51.17;99736.88;;;;-52
2021/05/24 13:11:38;;;;;;;1.35;1.10;;;;;;;19.55;51.17;99730.55;;;;-52
2021/05/24 13:14:38;;;;;;;2.27;1.03;;;;;;;19.56;51.48;99719.80;;;;-64
2021/05/24 13:17:47;;;;;;;1.23;1.01;;;;;;;19.56;51.49;99719.14;;;;-56
2021/05/24 13:21:01;;;;;;;1.51;1.05;;;;;;;19.58;51.48;99718.17;;;;-56
2021/05/24 13:23:49;;;;;;;2.91;1.11;;;;;;;19.59;51.75;99718.41;;;;-50
2021/05/24 13:26:57;;;;;;;2.43;1.21;;;;;;;19.61;51.85;99716.92;;;;-56
2021/05/24 13:29:46;;;;;;;3.03;1.17;;;;;;;19.62;51.82;99709.53;;;;-55
2021/05/24 13:32:37;;;;;;;5.14;1.27;;;;;;;19.63;51.93;99705.72;;;;-58
2021/05/24 13:35:37;;;;;;;3.58;1.19;;;;;;;19.65;51.65;99713.91;;;;-51
2021/05/24 13:38:37;;;;;;;4.39;1.11;;;;;;;19.68;51.79;99717.61;;;;-52
2021/05/24 13:41:37;;;;;;;2.31;1.20;;;;;;;19.69;51.91;99718.89;;;;-49
2021/05/24 13:44:37;;;;;;;4.68;1.30;;;;;;;19.68;51.82;99709.41;;;;-59
2021/05/24 13:47:37;;;;;;;5.46;1.20;;;;;;;19.68;51.70;99710.94;;;;-53
2021/05/24 13:50:37;;;;;;;4.59;1.19;;;;;;;19.69;51.93;99713.77;;;;-55
2021/05/24 13:53:37;;;;;;;3.04;1.21;;;;;;;19.69;51.85;99711.77;;;;-53
2021/05/24 13:56:37;;;;;;;8.25;1.55;;;;;;;19.71;51.86;99705.01;;;;-58
2021/05/24 13:59:37;;;;;;;7.86;1.28;;;;;;;19.69;51.87;99700.88;;;;-58
2021/05/24 14:02:37;;;;;;;3.65;1.20;;;;;;;19.69;51.85;99704.34;;;;-59
2021/05/24 14:05:37;;;;;;;3.49;1.24;;;;;;;19.68;51.85;99705.58;;;;-59
2021/05/24 14:08:37;;;;;;;2.16;1.07;;;;;;;19.67;51.69;99706.66;;;;-59
2021/05/24 14:11:37;;;;;;;2.80;1.17;;;;;;;19.66;51.77;99715.83;;;;-59
2021/05/24 14:14:37;;;;;;;3.85;1.19;;;;;;;19.66;51.70;99720.72;;;;-59
2021/05/24 14:17:41;;;;;;;3.92;1.10;;;;;;;19.65;51.72;99727.23;;;;-59
2021/05/24 14:20:37;;;;;;;3.12;1.26;;;;;;;19.65;51.63;99718.44;;;;-59
2021/05/24 14:23:37;;;;;;;2.27;1.05;;;;;;;19.65;51.58;99725.52;;;;-59
2021/05/24 14:26:37;;;;;;;2.74;1.21;;;;;;;19.63;51.61;99727.50;;;;-58
2021/05/24 14:29:37;;;;;;;2.75;1.17;;;;;;;19.63;51.56;99733.73;;;;-59
2021/05/24 14:32:37;;;;;;;1.49;1.09;;;;;;;19.62;51.52;99760.08;;;;-58
2021/05/24 14:35:37;;;;;;;3.59;1.21;;;;;;;19.62;51.52;99762.20;;;;-58
2021/05/24 14:38:37;;;;;;;2.05;1.03;;;;;;;19.62;51.55;99769.83;;;;-58
2021/05/24 14:41:37;;;;;;;1.35;1.01;;;;;;;19.62;51.52;99778.29;;;;-50
2021/05/24 14:44:37;;;;;;;1.57;1.03;;;;;;;19.62;51.60;99775.03;;;;-52
2021/05/24 14:47:37;;;;;;;2.34;1.11;;;;;;;19.64;51.59;99781.12;;;;-52
2021/05/24 14:50:45;;;;;;;3.53;1.41;;;;;;;19.64;51.73;99785.59;;;;-51
2021/05/24 14:53:37;;;;;;;1.73;1.01;;;;;;;19.66;51.76;99800.14;;;;-55
2021/05/24 14:56:37;;;;;;;2.04;1.10;;;;;;;19.66;51.87;99809.97;;;;-55
2021/05/24 14:59:37;;;;;;;2.13;1.06;;;;;;;19.66;51.95;99816.30;;;;-51
2021/05/24 15:02:37;;;;;;;1.51;1.10;;;;;;;19.68;52.05;99819.23;;;;-51
2021/05/24 15:05:37;;;;;;;1.35;1.10;;;;;;;19.68;52.11;99822.73;;;;-54
2021/05/24 15:08:37;;;;;;;1.71;1.13;;;;;;;19.69;52.16;99824.73;;;;-52
2021/05/24 15:11:37;;;;;;;1.86;1.07;;;;;;;19.69;52.25;99832.88;;;;-52
2021/05/24 15:14:40;;;;;;;2.43;1.08;;;;;;;19.70;52.21;99844.99;;;;-55
2021/05/24 15:17:39;;;;;;;1.51;1.15;;;;;;;19.71;52.24;99850.29;;;;-53
2021/05/24 15:20:37;;;;;;;1.43;1.01;;;;;;;19.72;52.20;99850.22;;;;-50
2021/05/24 15:23:37;;;;;;;1.37;1.09;;;;;;;19.72;52.33;99847.05;;;;-53
2021/05/24 15:26:37;;;;;;;2.21;1.03;;;;;;;19.73;52.30;99854.98;;;;-51
2021/05/24 15:29:37;;;;;;;3.59;1.18;;;;;;;19.74;52.34;99858.25;;;;-52
2021/05/24 15:32:39;;;;;;;3.82;1.19;;;;;;;19.75;52.38;99860.68;;;;-57
2021/05/24 15:35:37;;;;;;;6.39;1.31;;;;;;;19.75;52.22;99863.11;;;;-54
2021/05/24 15:38:37;;;;;;;1.54;1.16;;;;;;;19.75;52.21;99867.59;;;;-58
2021/05/24 15:41:37;;;;;;;3.84;1.24;;;;;;;19.76;52.12;99870.92;;;;-55
2021/05/24 15:44:37;;;;;;;3.53;1.07;;;;;;;19.77;52.31;99874.16;;;;-58
2021/05/24 15:47:37;;;;;;;4.27;1.20;;;;;;;19.77;52.25;99882.36;;;;-58
2021/05/24 15:50:37;;;;;;;3.14;1.19;;;;;;;19.76;52.13;99887.52;;;;-59
2021/05/24 15:53:38;;;;;;;3.93;1.16;;;;;;;19.75;52.11;99890.42;;;;-58
2021/05/24 15:56:37;;;;;;;1.99;1.03;;;;;;;19.75;52.07;99900.19;;;;-58
2021/05/24 15:59:37;;;;;;;1.70;1.09;;;;;;;19.73;52.05;99913.85;;;;-58
2021/05/24 16:02:37;;;;;;;8.76;1.21;;;;;;;19.72;52.01;99912.08;;;;-59
2021/05/24 16:05:37;;;;;;;2.27;1.02;;;;;;;19.73;52.16;99929.70;;;;-53
2021/05/24 16:08:37;;;;;;;2.59;1.13;;;;;;;19.73;52.08;99920.19;;;;-56
2021/05/24 16:11:37;;;;;;;8.79;1.42;;;;;;;19.75;52.27;99919.12;;;;-58
2021/05/24 16:14:37;;;;;;;4.55;1.36;;;;;;;19.76;52.18;99914.09;;;;-51
2021/05/24 16:17:38;;;;;;;6.05;1.07;;;;;;;19.75;52.18;99915.31;;;;-51
2021/05/24 16:20:37;;;;;;;5.19;1.21;;;;;;;19.76;52.17;99923.45;;;;-53
2021/05/24 16:23:43;;;;;;;2.10;1.17;;;;;;;19.77;52.25;99930.10;;;;-54
2021/05/24 16:26:38;;;;;;;7.95;1.16;;;;;;;19.77;52.13;99931.63;;;;-51
2021/05/24 16:29:37;;;;;;;4.27;1.49;;;;;;;19.78;52.17;99934.83;;;;-51
2021/05/24 16:32:37;;;;;;;2.41;1.01;;;;;;;19.78;52.34;99921.97;;;;-50
2021/05/24 16:35:37;;;;;;;3.29;1.21;;;;;;;19.79;52.27;99906.11;;;;-51
2021/05/24 16:38:37;;;;;;;2.20;1.05;;;;;;;19.80;52.29;99904.90;;;;-53
2021/05/24 16:41:37;;;;;;;2.71;1.10;;;;;;;19.81;52.36;99932.52;;;;-59
2021/05/24 16:44:37;;;;;;;2.48;1.31;;;;;;;19.81;52.40;99923.01;;;;-51
2021/05/24 16:47:37;;;;;;;2.35;1.20;;;;;;;19.81;52.50;99906.17;;;;-57
2021/05/24 16:50:37;;;;;;;3.64;1.30;;;;;;;19.83;52.49;99902.84;;;;-52